• Join FlightAware (Why Join?)
  • Login
  • US Flag 
05:54AM EDT


 

Airport Tracker/Info


-or-


 

Live Flight TrackerFlight Track Log ✈ N363NH ✈ 13-Nov-2013 ✈ KVNY - KBFI

Flight Track Log - Related Links

Times and Time Zones

All times are in EST time to prevent confusion due to time zone crossing. See the N363NH flight status page for this flight to view local times or setup timezone preferences in your user account.

Time Position Orientation Groundspeed Altitude Reporting Facility
EST Latitude Longitude Course Direction KTS MPH feet Rate Location/Type
01:41AM 34.2381 -118.4925 347° North 184 212 2,100  Level Los Angeles Center
01:42AM 34.2978 -118.5086 347° North 226 260 4,100 2,280 Climbing Los Angeles Center
01:43AM 34.3692 -118.5272 348° North 250 288 6,800 2,820 Climbing Los Angeles Center
01:44AM 34.4061 -118.6100 298° West 281 323 9,900 2,940 Climbing Los Angeles Center
01:45AM 34.4492 -118.6869 304° West 286 329 12,800 2,460 Climbing Los Angeles Center
01:46AM 34.5411 -118.7308 339° North 299 344 14,900 2,040 Climbing Los Angeles Center
01:47AM 34.6219 -118.7706 338° Northwest 311 358 17,000 1,800 Climbing Los Angeles Center
01:48AM 34.7078 -118.8011 344° North 323 372 18,600 1,680 Climbing Los Angeles Center
01:49AM 34.7944 -118.8264 347° North 319 367 20,500 1,680 Climbing Los Angeles Center
01:50AM 34.8822 -118.8519 347° North 322 371 22,100 1,200 Climbing Los Angeles Center
01:51AM 34.9619 -118.8747 347° North 329 379 23,000 1,200 Climbing Los Angeles Center
01:52AM 35.0567 -118.9014 347° North 346 398 24,600 1,440 Climbing Los Angeles Center
01:53AM 35.1456 -118.9278 346° North 334 384 26,000 1,140 Climbing Los Angeles Center
01:54AM 35.2381 -118.9544 347° North 340 391 27,000 1,140 Climbing Los Angeles Center
01:55AM 35.3478 -118.9867 347° North 339 390 28,300 1,140 Climbing Los Angeles Center
01:56AM 35.4400 -119.0150 346° North 341 392 29,300 960 Climbing Los Angeles Center
01:57AM 35.5336 -119.0425 347° North 346 398 30,300 1,140 Climbing Los Angeles Center
01:58AM 35.6261 -119.0706 346° North 344 396 31,700 1,500 Climbing Los Angeles Center
01:59AM 35.7167 -119.0975 346° North 338 389 33,400 1,680 Climbing Los Angeles Center
02:00AM 35.8025 -119.1242 346° North 324 373 35,100 1,800 Climbing Los Angeles Center
02:01AM 35.8833 -119.1478 347° North 305 351 37,100 1,440 Climbing Los Angeles Center
02:02AM 35.9608 -119.1717 346° North 292 336 38,100 960 Climbing Los Angeles Center
02:03AM 36.0422 -119.1958 346° North 298 343 39,100 720 Climbing Los Angeles Center
02:04AM 36.1261 -119.2217 346° North 310 357 39,600 420 Climbing Los Angeles Center
02:05AM 36.2150 -119.2469 347° North 325 374 40,000 180 Climbing Los Angeles Center
02:06AM 36.3094 -119.2772 346° North 345 397 40,000 420 Level Los Angeles Center
02:07AM 36.4078 -119.3078 346° North 360 414 40,900 840 Climbing Los Angeles Center
02:08AM 36.5378 -119.3447 347° North 351 404 42,200 720 Climbing Oakland Center
02:09AM 36.6344 -119.3736 347° North 356 410 42,700 300 Climbing Oakland Center
02:10AM 36.7522 -119.4092 346° North 363 418 42,900 120 Climbing Oakland Center
02:11AM 36.8533 -119.4428 345° North 373 429 43,000  Climbing Oakland Center
02:12AM 36.9572 -119.4753 346° North 385 443 43,000  Level Oakland Center
02:13AM 37.0617 -119.5081 346° North 388 447 43,000  Level Oakland Center
02:14AM 37.1672 -119.5408 346° North 392 451 43,000  Level Oakland Center
02:15AM 37.2733 -119.5728 347° North 392 451 43,000  Level Oakland Center
02:16AM 37.3831 -119.6072 346° North 394 453 43,000  Level Oakland Center
02:18AM 37.4892 -119.6408 346° North 394 453 43,000  Level Oakland Center
02:19AM 37.5961 -119.6742 346° North 394 453 43,000  Level Oakland Center
02:20AM 37.7036 -119.7089 346° North 396 456 43,000  Level Oakland Center
02:21AM 37.8097 -119.7431 346° North 395 455 43,000  Level Oakland Center
02:22AM 37.9172 -119.7761 346° North 398 458 43,000  Level Oakland Center
02:23AM 38.0242 -119.8106 346° North 397 457 43,000  Level Oakland Center
02:24AM 38.1319 -119.8442 346° North 397 457 43,000  Level Oakland Center
02:25AM 38.2403 -119.8792 346° North 401 461 43,000  Level Oakland Center
02:26AM 38.3467 -119.9131 346° North 398 458 43,000  Level Oakland Center
02:27AM 38.4736 -119.9531 346° North 393 452 43,000  Level Oakland Center
02:28AM 38.5789 -119.9883 345° North 393 452 43,000  Level Oakland Center
02:29AM 38.6858 -120.0222 346° North 396 456 43,000  Level Oakland Center
02:30AM 38.7919 -120.0569 346° North 395 455 43,000  Level Oakland Center
02:31AM 38.8978 -120.0919 346° North 394 453 43,000  Level Oakland Center
02:32AM 39.0064 -120.1278 346° North 391 450 43,000  Level Oakland Center
02:33AM 39.1075 -120.1614 346° North 391 450 43,000  Level Oakland Center
02:34AM 39.2122 -120.1958 346° North 390 449 43,000  Level Oakland Center
02:35AM 39.3161 -120.2283 346° North 387 445 43,000  Level Oakland Center
02:36AM 39.4203 -120.2631 346° North 387 445 43,000  Level Oakland Center
02:37AM 39.5250 -120.2983 345° North 388 447 43,000  Level Oakland Center
02:38AM 39.6278 -120.3322 346° North 383 441 43,000  Level Oakland Center
02:39AM 39.7325 -120.3678 345° North 387 445 43,000  Level Oakland Center
02:40AM 39.8358 -120.4019 346° North 384 442 43,000  Level Oakland Center
02:41AM 39.9392 -120.4375 345° North 384 442 43,000  Level Oakland Center
02:42AM 40.0447 -120.4731 346° North 385 443 43,000  Level Oakland Center
02:43AM 40.1489 -120.5075 346° North 385 443 43,000  Level Oakland Center
02:44AM 40.2525 -120.5428 345° North 386 444 43,000  Level Oakland Center
02:45AM 40.3547 -120.5783 345° North 383 441 43,000  Level Oakland Center
02:46AM 40.4589 -120.6128 346° North 385 443 43,000  Level Oakland Center
02:47AM 40.5647 -120.6500 345° North 388 447 43,000  Level Oakland Center
02:48AM 40.6681 -120.6847 346° North 387 445 43,000  Level Oakland Center
02:49AM 40.7706 -120.7206 345° North 384 442 43,000  Level Oakland Center
02:50AM 40.8728 -120.7564 345° North 382 440 43,000  Level Oakland Center
02:51AM 40.9756 -120.7922 345° North 381 438 43,000  Level Oakland Center
02:52AM 41.0781 -120.8281 345° North 383 441 43,000  Level Oakland Center
02:53AM 41.1817 -120.8661 345° North 386 444 43,000  Level Oakland Center
02:54AM 41.2842 -120.9008 346° North 382 440 43,000  Level Oakland Center
02:55AM 41.3867 -120.9372 345° North 383 441 43,000  Level Oakland Center
02:56AM 41.4903 -120.9736 345° North 384 442 43,000  Level Oakland Center
02:57AM 41.5928 -121.0092 345° North 384 442 43,000  Level Oakland Center
02:58AM 41.6961 -121.0461 345° North 384 442 43,000  Level Oakland Center
02:59AM 41.7978 -121.0817 345° North 382 440 43,000  Level Oakland Center
03:00AM 41.9014 -121.1197 345° North 381 438 43,000  Level Oakland Center
03:01AM 42.0006 -121.1553 345° North 379 436 43,000  Level Oakland Center
03:02AM 42.1250 -121.1986 346° North 381 438 43,000  Level Seattle Center
03:03AM 42.2269 -121.2361 345° North 380 437 43,000  Level Seattle Center
03:04AM 42.3283 -121.2733 345° North 381 438 43,000  Level Seattle Center
03:05AM 42.4294 -121.3094 345° North 378 435 43,000  Level Seattle Center
03:06AM 42.5322 -121.3483 344° North 384 442 43,000  Level Seattle Center
03:07AM 42.6356 -121.3864 345° North 387 445 43,000  Level Seattle Center
03:08AM 42.7381 -121.4228 345° North 385 443 43,000  Level Seattle Center
03:09AM 42.8417 -121.4614 345° North 387 445 43,000  Level Seattle Center
03:10AM 42.9467 -121.5014 344° North 391 450 43,000  Level Seattle Center
03:11AM 43.0519 -121.5406 345° North 393 452 43,000  Level Seattle Center
03:12AM 43.1578 -121.5767 346° North 392 451 43,000  Level Seattle Center
03:13AM 43.2636 -121.6164 345° North 394 453 43,000  Level Seattle Center
03:14AM 43.3700 -121.6567 345° North 396 456 43,000  Level Seattle Center
03:15AM 43.4761 -121.7014 343° North 399 459 43,000  Level Seattle Center
03:16AM 43.5822 -121.7414 345° North 396 456 43,000  Level Seattle Center
03:17AM 43.6883 -121.7811 345° North 396 456 43,000  Level Seattle Center
03:18AM 43.7944 -121.8206 345° North 395 455 43,000  Level Seattle Center
03:19AM 43.9156 -121.8658 345° North 399 459 43,000  Level Seattle Center
03:20AM 44.0072 -121.8981 346° North 395 455 43,000  Level Seattle Center
03:21AM 44.1119 -121.9386 344° North 393 452 43,000  Level Seattle Center
03:22AM 44.2389 -121.9881 344° North 394 453 43,000  Level Seattle Center
03:23AM 44.3447 -122.0300 344° North 396 456 43,000  Level Seattle Center
03:24AM 44.4503 -122.0703 345° North 394 453 43,000  Level Seattle Center
03:25AM 44.5561 -122.1131 344° North 396 456 43,000  Level Seattle Center
03:26AM 44.6622 -122.1542 345° North 397 457 43,000  Level Seattle Center
03:27AM 44.7686 -122.1967 344° North 398 458 43,000  Level Seattle Center
03:28AM 44.8753 -122.2389 344° North 400 460 43,000  Level Seattle Center
03:29AM 44.9639 -122.2753 344° North 393 452 43,000  Level Seattle Center
03:30AM 45.0728 -122.3183 344° North 405 466 43,000  Level Seattle Center
03:31AM 45.1803 -122.3614 344° North 406 467 43,000  Level Seattle Center
03:32AM 45.2881 -122.4031 345° North 404 465 43,000 -60 Level Seattle Center
03:33AM 45.3958 -122.4414 346° North 402 463 42,900 -360 Descending Seattle Center
03:34AM 45.5086 -122.4719 349° North 412 474 42,300 -840 Descending Seattle Center
03:35AM 45.6244 -122.5042 349° North 424 488 41,300 -1,020 Descending Seattle Center
03:36AM 45.7425 -122.5386 348° North 432 497 40,300 -1,380 Descending Seattle Center
03:37AM 45.8589 -122.5686 350° North 428 493 38,600 -2,460 Descending Seattle Center
03:38AM 45.9953 -122.5675 360° North 410 472 35,400 -3,000 Descending Seattle Center
03:39AM 46.1131 -122.5667 360° North 423 487 32,700 -2,580 Descending Seattle Center
03:40AM 46.2233 -122.5703 359° North 441 507 30,300 -2,820 Descending Seattle Center
03:41AM 46.3800 -122.5711 360° North 468 539 26,900 -3,000 Descending Seattle Center
03:42AM 46.5089 -122.5725 360° North 466 536 24,100 -2,700 Descending Seattle Center
03:43AM 46.6333 -122.5753 359° North 450 518 21,500 -2,580 Descending Seattle Center
03:43AM 46.6364 -122.5761 349° North 449 517 21,400 -2,220 Descending Seattle Center
03:44AM 46.7561 -122.5753 360° North 443 510 19,300 -2,400 Descending Seattle Center
03:44AM 46.7767 -122.5781 355° North 439 505 18,800 -1,920 Descending Seattle Center
03:45AM 46.8697 -122.5792 360° North 413 475 17,400 -1,680 Descending Seattle Center
03:45AM 46.8833 -122.5789 North 372 428 17,100 -1,800 Descending Seattle Center
03:46AM 46.9672 -122.5792 360° North 355 409 15,600 -1,800 Descending Seattle Center
03:46AM 46.9817 -122.5808 355° North 340 391 15,300 -1,800 Descending Seattle Center
03:47AM 47.0608 -122.5797 North 339 390 13,800 -1,920 Descending Seattle Center
03:47AM 47.0686 -122.5825 346° North 335 386 13,600 -1,740 Descending Seattle Center
03:48AM 47.1531 -122.5847 359° North 329 379 12,100 -1,620 Descending Seattle Center
03:48AM 47.1603 -122.5847 360° North 329 379 12,000 -1,320 Descending Seattle Center
03:49AM 47.2419 -122.5903 357° North 323 372 10,800 -1,200 Descending Seattle Center
03:49AM 47.2600 -122.5925 355° North 312 359 10,700 -1,020 Descending Seattle Center
03:50AM 47.3214 -122.5983 356° North 286 329 9,800 -1,320 Descending Seattle Center
03:50AM 47.3392 -122.5986 359° North 273 314 9,400 -1,620 Descending Seattle Center
03:51AM 47.3981 -122.6028 357° North 276 318 8,200 -1,500 Descending Seattle Center
03:51AM 47.4164 -122.6056 354° North 271 312 7,900 -1,680 Descending Seattle Center
03:52AM 47.4722 -122.5931 North 268 308 6,500 -1,800 Descending Seattle Center
03:52AM 47.4886 -122.5922 North 259 298 6,100 -2,040 Descending Seattle Center
03:53AM 47.5433 -122.5831 North 257 296 4,500 -2,100 Descending Seattle Center
03:53AM 47.5594 -122.5831 360° North 252 290 4,000 -1,920 Descending Seattle Center
03:54AM 47.6136 -122.5731 North 256 295 2,600 -1,500 Descending Seattle Center
03:54AM 47.6297 -122.5708 North 255 293 2,500 -420 Descending Seattle Center
03:55AM 47.6753 -122.5536 14° North 229 264 2,200 -300 Descending Seattle Center
03:55AM 47.6817 -122.5392 57° Northeast 203 234 2,200  Level Seattle Center
03:56AM 47.7056 -122.4789 59° Northeast 216 249 2,200  Level Seattle Center
03:56AM 47.7056 -122.4569 90° East 224 258 2,200  Level Seattle Center
03:57AM 47.6733 -122.4128 137° Southeast 214 246 2,200  Level Seattle Center
03:57AM 47.6594 -122.4067 163° South 207 238 2,200 -240 Level Seattle Center
03:58AM 47.6200 -122.3797 155° Southeast 207 238 2,000 -540 Descending Seattle Center
03:58AM 47.6106 -122.3711 148° Southeast 193 222 1,700 -900 Descending Seattle Center
03:59AM 47.5817 -122.3464 150° Southeast 157 181 1,100 -900 Descending Seattle Center
03:59AM 47.5717 -122.3400 157° South 130 150 800 -720 Descending Seattle Center
04:00AM 47.5517 -122.3211 147° Southeast 125 144 400 -360 Descending Seattle Center
04:01AM 47.5256 -122.2989 150° Southeast 124 143 200 -180 Descending Seattle Center
04:02AM 47.5289 -122.2925 52° Northeast 92 106 100 -120 Descending Seattle Center